Time;durP1;ratioP1;P1;durP2;ratioP2;P2;SDS_P1;SDS_P2;PMS_P1;PMS_P2;Temp;Humidity;BMP_temperature;BMP_pressure;BME280_temperature;BME280_humidity;BME280_pressure;Samples;Min_cycle;Max_cycle;Signal;HPM_P1;HPM_P2
2023/06/11 00:00:36;;;;;;;;;;;;;;;-140.72;0.00;52151.44;6247042;23;19911;-71
2023/06/11 00:03:01;;;;;;;;;;;;;;;-140.72;0.00;52143.31;6246767;23;19912;-70
2023/06/11 00:05:28;;;;;;;;;;;;;;;-140.72;0.00;52155.50;6246432;23;19918;-71
2023/06/11 00:07:55;;;;;;;;;;;;;;;-140.72;0.00;52151.44;6219985;23;20323;-70
2023/06/11 00:10:20;;;;;;;;;;;;;;;-140.72;0.00;52159.56;6246888;23;19912;-71
2023/06/11 00:12:46;;;;;;;;;;;;;;;-140.72;0.00;52139.25;6246579;23;19912;-71
2023/06/11 00:15:11;;;;;;;;;;;;;;;-140.72;0.00;52147.38;6246391;23;19919;-71
2023/06/11 00:17:36;;;;;;;;;;;;;;;-140.72;0.00;52129.13;6246515;23;20343;-71
2023/06/11 00:20:03;;;;;;;;;;;;;;;-140.72;0.00;52147.38;6246334;23;20290;-71
2023/06/11 00:22:31;;;;;;;;;;;;;;;-140.72;0.00;52141.28;6246839;23;19941;-70
2023/06/11 00:24:56;;;;;;;;;;;;;;;-140.72;0.00;52159.56;6246743;23;20233;-71
2023/06/11 00:27:22;;;;;;;;;;;;;;;-140.72;0.00;52204.19;6247584;23;20010;-71
2023/06/11 00:29:47;;;;;;;;;;;;;;;-140.72;0.00;52159.56;6248739;23;19912;-71
2023/06/11 00:32:12;;;;;;;;;;;;;;;-140.72;0.00;52135.19;6247563;23;20296;-71
2023/06/11 00:34:37;;;;;;;;;;;;;;;-140.72;0.00;52147.38;6246451;23;19912;-71
2023/06/11 00:37:03;;;;;;;;;;;;;;;-140.72;0.00;52183.91;6219669;23;19943;-71
2023/06/11 00:39:28;;;;;;;;;;;;;;;-140.72;0.00;52200.13;6246340;23;19947;-71
2023/06/11 00:41:53;;;;;;;;;;;;;;;-140.72;0.00;52137.22;6246547;23;19915;-71
2023/06/11 00:44:21;;;;;;;;;;;;;;;-140.72;0.00;52169.69;6246866;23;20268;-70
2023/06/11 00:46:48;;;;;;;;;;;;;;;-140.72;0.00;52167.66;6247083;22;19912;-71
2023/06/11 00:49:13;;;;;;;;;;;;;;;-140.72;0.00;52163.59;6246592;23;20283;-71
2023/06/11 00:51:43;;;;;;;;;;;;;;;-140.72;0.00;52200.13;6246800;23;19986;-70
2023/06/11 00:54:12;;;;;;;;;;;;;;;-140.72;0.00;52135.19;6219098;23;20006;-70
2023/06/11 00:56:39;;;;;;;;;;;;;;;-140.72;0.00;52157.53;6246734;23;19982;-70
2023/06/11 00:59:06;;;;;;;;;;;;;;;-140.72;0.00;52183.91;6246714;23;19915;-70
2023/06/11 01:01:35;;;;;;;;;;;;;;;-140.72;0.00;52204.19;6219168;23;20191;-70
2023/06/11 01:04:01;;;;;;;;;;;;;;;-140.72;0.00;52192.00;6246640;23;19918;-70
2023/06/11 01:06:28;;;;;;;;;;;;;;;-140.72;0.00;52159.56;6219538;23;19912;-70
2023/06/11 01:08:57;;;;;;;;;;;;;;;-140.72;0.00;52165.63;6246200;23;19916;-70
2023/06/11 01:11:23;;;;;;;;;;;;;;;-140.72;0.00;52163.59;6246413;23;19915;-70
2023/06/11 01:13:48;;;;;;;;;;;;;;;-140.72;0.00;52194.03;6245916;23;20216;-70
2023/06/11 01:16:32;;;;;;;;;;;;;;;-140.72;0.00;52175.78;6218335;23;20306;-70
2023/06/11 01:19:08;;;;;;;;;;;;;;;-140.72;0.00;52153.47;6219609;23;20053;-70
2023/06/11 01:21:45;;;;;;;;;;;;;;;-140.72;0.00;52169.69;6246598;23;19912;-70
2023/06/11 01:24:14;;;;;;;;;;;;;;;-140.72;0.00;52198.09;6247024;23;19919;-71
2023/06/11 01:26:43;;;;;;;;;;;;;;;-140.72;0.00;52196.06;6250968;23;19912;-71
2023/06/11 01:29:09;;;;;;;;;;;;;;;-140.72;0.00;52155.50;6252308;23;19935;-70
2023/06/11 01:31:37;;;;;;;;;;;;;;;-140.72;0.00;52171.72;6249922;23;19911;-71
2023/06/11 01:34:03;;;;;;;;;;;;;;;-140.72;0.00;52198.09;6247277;23;19916;-71
2023/06/11 01:36:29;;;;;;;;;;;;;;;-140.72;0.00;52171.72;6219775;23;19912;-71
2023/06/11 01:38:58;;;;;;;;;;;;;;;-140.72;0.00;52187.97;6246282;23;19961;-71
2023/06/11 01:41:25;;;;;;;;;;;;;;;-140.72;0.00;52200.13;6246310;23;19911;-70
2023/06/11 01:43:50;;;;;;;;;;;;;;;-140.72;0.00;52212.31;6246025;23;19938;-70
2023/06/11 01:46:15;;;;;;;;;;;;;;;-140.72;0.00;52196.06;6246226;22;20007;-71
2023/06/11 01:48:40;;;;;;;;;;;;;;;-140.72;0.00;52214.34;6247091;23;19915;-71
2023/06/11 01:51:06;;;;;;;;;;;;;;;-140.72;0.00;52169.69;6246848;23;19918;-71
2023/06/11 01:53:42;;;;;;;;;;;;;;;-140.72;0.00;52192.00;6248583;23;19935;-71
2023/06/11 01:56:07;;;;;;;;;;;;;;;-140.72;0.00;52169.69;6249254;23;19934;-71
2023/06/11 01:58:32;;;;;;;;;;;;;;;-140.72;0.00;52175.78;6246672;23;19911;-71
2023/06/11 02:00:58;;;;;;;;;;;;;;;-140.72;0.00;52222.44;6245969;23;19912;-71
2023/06/11 02:03:23;;;;;;;;;;;;;;;-140.72;0.00;52192.00;6218723;23;19915;-71
2023/06/11 02:05:48;;;;;;;;;;;;;;;-140.72;0.00;52220.41;6218428;23;19943;-71
2023/06/11 02:08:14;;;;;;;;;;;;;;;-140.72;0.00;52171.72;6245862;23;19918;-71
2023/06/11 02:10:39;;;;;;;;;;;;;;;-140.72;0.00;52187.97;6245359;23;20225;-71
2023/06/11 02:13:04;;;;;;;;;;;;;;;-140.72;0.00;52212.31;6245622;23;20176;-70
2023/06/11 02:15:30;;;;;;;;;;;;;;;-140.72;0.00;52187.97;6245549;23;19912;-71
2023/06/11 02:17:55;;;;;;;;;;;;;;;-140.72;0.00;52236.66;6245350;23;20262;-71
2023/06/11 02:20:20;;;;;;;;;;;;;;;-140.72;0.00;52194.03;6245620;23;19915;-71
2023/06/11 02:22:45;;;;;;;;;;;;;;;-140.72;0.00;52163.59;6245460;23;20372;-71
2023/06/11 02:25:11;;;;;;;;;;;;;;;-140.72;0.00;52212.31;6246048;23;19916;-71
2023/06/11 02:27:36;;;;;;;;;;;;;;;-140.72;0.00;52171.72;6219260;23;19994;-71
2023/06/11 02:30:02;;;;;;;;;;;;;;;-140.72;0.00;52194.03;6245508;23;20026;-71
2023/06/11 02:32:28;;;;;;;;;;;;;;;-140.72;0.00;52179.84;6245585;23;19994;-71
2023/06/11 02:34:53;;;;;;;;;;;;;;;-140.72;0.00;52173.75;6245587;23;20280;-70
2023/06/11 02:37:18;;;;;;;;;;;;;;;-140.72;0.00;52200.13;6245440;23;20012;-70
2023/06/11 02:39:43;;;;;;;;;;;;;;;-140.72;0.00;52212.31;6245366;23;20192;-71
2023/06/11 02:42:09;;;;;;;;;;;;;;;-140.72;0.00;52244.78;6245039;23;19912;-71
2023/06/11 02:44:34;;;;;;;;;;;;;;;-140.72;0.00;52183.91;6245310;23;19988;-71
2023/06/11 02:47:00;;;;;;;;;;;;;;;-140.72;0.00;52185.94;6245223;22;19915;-70
2023/06/11 02:49:25;;;;;;;;;;;;;;;-140.72;0.00;52242.75;6245242;23;19911;-71
2023/06/11 02:51:50;;;;;;;;;;;;;;;-140.72;0.00;52177.81;6245063;23;19912;-71
2023/06/11 02:54:18;;;;;;;;;;;;;;;-140.72;0.00;52196.06;6245787;23;20301;-71
2023/06/11 02:56:43;;;;;;;;;;;;;;;-140.72;0.00;52218.38;6224626;23;19911;-71
2023/06/11 02:59:26;;;;;;;;;;;;;;;-140.72;0.00;52226.50;6246722;23;19969;-71
2023/06/11 03:01:53;;;;;;;;;;;;;;;-140.72;0.00;52232.59;6245122;23;19911;-70
2023/06/11 03:04:18;;;;;;;;;;;;;;;-140.72;0.00;52216.34;6245193;23;19911;-70
2023/06/11 03:06:43;;;;;;;;;;;;;;;-140.72;0.00;52254.91;6244604;23;20290;-70
2023/06/11 03:09:08;;;;;;;;;;;;;;;-140.72;0.00;52256.94;6245539;23;20438;-70
2023/06/11 03:11:34;;;;;;;;;;;;;;;-140.72;0.00;52269.13;6244876;23;20243;-70
2023/06/11 03:13:59;;;;;;;;;;;;;;;-140.72;0.00;52232.59;6244737;23;20304;-70
2023/06/11 03:16:24;;;;;;;;;;;;;;;-140.72;0.00;52230.56;6244692;23;19912;-70
2023/06/11 03:18:49;;;;;;;;;;;;;;;-140.72;0.00;52212.31;6244257;23;20268;-70
2023/06/11 03:21:15;;;;;;;;;;;;;;;-140.72;0.00;52256.94;6245170;23;19912;-70
2023/06/11 03:23:40;;;;;;;;;;;;;;;-140.72;0.00;52212.31;6244645;23;19912;-70
2023/06/11 03:26:05;;;;;;;;;;;;;;;-140.72;0.96;52261.00;6217525;23;20193;-70
2023/06/11 03:28:30;;;;;;;;;;;;;;;-140.72;9.94;52256.94;6244888;23;19947;-70
2023/06/11 03:30:55;;;;;;;;;;;;;;;-140.72;15.13;52252.88;6244223;23;19915;-71
2023/06/11 03:33:21;;;;;;;;;;;;;;;-140.72;17.09;52210.28;6244280;23;19987;-70
2023/06/11 03:35:46;;;;;;;;;;;;;;;-140.72;34.50;52240.72;6244756;23;20259;-70
2023/06/11 03:38:11;;;;;;;;;;;;;;;-140.72;31.36;52252.88;6246222;23;19923;-71
2023/06/11 03:40:36;;;;;;;;;;;;;;;-140.72;36.94;52256.94;6219258;23;19911;-70
2023/06/11 03:43:02;;;;;;;;;;;;;;;-140.72;43.78;52263.03;6246144;23;19915;-71
2023/06/11 03:45:27;;;;;;;;;;;;;;;-140.72;59.53;52206.22;6249897;22;19916;-70
2023/06/11 03:47:55;;;;;;;;;;;;;;;-140.72;70.55;52246.78;6249354;23;19915;-70
2023/06/11 03:50:21;;;;;;;;;;;;;;;-140.72;78.57;52250.84;6219683;23;19919;-71
2023/06/11 03:52:46;;;;;;;;;;;;;;;-140.72;82.73;52234.63;6219085;23;19911;-71
2023/06/11 03:55:11;;;;;;;;;;;;;;;-140.72;85.58;52244.78;6245631;23;20002;-70
2023/06/11 03:57:36;;;;;;;;;;;;;;;-140.72;93.95;52220.41;6245677;23;19912;-71
2023/06/11 04:00:02;;;;;;;;;;;;;;;-140.72;91.25;52240.72;6245370;23;19916;-71
2023/06/11 04:02:27;;;;;;;;;;;;;;;-140.72;100.00;52238.69;6244932;23;19964;-70
2023/06/11 04:04:52;;;;;;;;;;;;;;;-140.72;100.00;52244.78;6244975;23;19951;-71
2023/06/11 04:07:18;;;;;;;;;;;;;;;-140.72;100.00;52232.59;6245045;23;19911;-71
2023/06/11 04:09:43;;;;;;;;;;;;;;;-140.72;100.00;52200.13;6217330;23;20352;-71
2023/06/11 04:12:08;;;;;;;;;;;;;;;-140.72;100.00;52212.31;6244847;23;19981;-71
2023/06/11 04:14:33;;;;;;;;;;;;;;;-140.72;100.00;52224.47;6244438;23;20328;-71
2023/06/11 04:16:59;;;;;;;;;;;;;;;-140.72;100.00;52216.34;6244553;23;20308;-71
2023/06/11 04:19:24;;;;;;;;;;;;;;;-140.72;100.00;52206.22;6245040;23;19943;-71
2023/06/11 04:21:49;;;;;;;;;;;;;;;-140.72;100.00;52222.44;6245086;23;19915;-71
2023/06/11 04:24:15;;;;;;;;;;;;;;;-140.72;100.00;52216.34;6217678;23;20308;-71
2023/06/11 04:26:40;;;;;;;;;;;;;;;-140.72;100.00;52230.56;6244401;23;19917;-71
2023/06/11 04:29:08;;;;;;;;;;;;;;;-140.72;100.00;52250.84;6243908;23;19918;-71
2023/06/11 04:31:33;;;;;;;;;;;;;;;-140.72;100.00;52242.75;6244864;23;19911;-71
2023/06/11 04:34:02;;;;;;;;;;;;;;;-140.72;100.00;52228.53;6217455;23;19951;-72
2023/06/11 04:36:28;;;;;;;;;;;;;;;-140.72;100.00;52226.50;6217475;23;20228;-72
2023/06/11 04:38:54;;;;;;;;;;;;;;;-140.72;100.00;52236.66;6244606;23;19919;-71
2023/06/11 04:41:22;;;;;;;;;;;;;;;-140.72;100.00;52212.31;6217422;23;19912;-71
2023/06/11 04:43:48;;;;;;;;;;;;;;;-140.72;100.00;52208.25;6218134;23;19911;-71
2023/06/11 04:46:14;;;;;;;;;;;;;;;-140.72;100.00;52216.34;6219106;23;19912;-71
2023/06/11 04:48:40;;;;;;;;;;;;;;;-140.72;100.00;52196.06;6246011;23;19911;-71
2023/06/11 04:51:06;;;;;;;;;;;;;;;-140.72;100.00;52200.13;6245859;23;19935;-71
2023/06/11 04:53:31;;;;;;;;;;;;;;;-140.72;100.00;52224.47;6219847;23;19966;-71
2023/06/11 04:55:58;;;;;;;;;;;;;;;-140.72;100.00;52220.41;6246867;23;19912;-71
2023/06/11 04:58:27;;;;;;;;;;;;;;;-140.72;100.00;52212.31;6246472;23;20193;-71
2023/06/11 05:00:56;;;;;;;;;;;;;;;-140.72;100.00;52220.41;6245942;23;19927;-71
2023/06/11 05:03:21;;;;;;;;;;;;;;;-140.72;100.00;52192.00;6245977;23;19919;-71
2023/06/11 05:05:51;;;;;;;;;;;;;;;-140.72;100.00;52222.44;6245790;23;19990;-71
2023/06/11 05:08:27;;;;;;;;;;;;;;;-140.72;100.00;52226.50;6246126;23;19993;-71
2023/06/11 05:10:53;;;;;;;;;;;;;;;-140.72;100.00;52216.34;6247389;23;19922;-71
2023/06/11 05:13:24;;;;;;;;;;;;;;;-140.72;100.00;52224.47;6249659;23;20019;-71
2023/06/11 05:15:49;;;;;;;;;;;;;;;-140.72;100.00;52224.47;6251722;23;19946;-71
2023/06/11 05:18:15;;;;;;;;;;;;;;;-140.72;100.00;52157.53;6251840;23;19911;-72
2023/06/11 05:20:40;;;;;;;;;;;;;;;-140.72;100.00;52181.88;6246994;23;19922;-71
2023/06/11 05:23:06;;;;;;;;;;;;;;;-140.72;100.00;52212.31;6246986;23;19939;-71
2023/06/11 05:25:31;;;;;;;;;;;;;;;-140.72;100.00;52212.31;6218933;23;19912;-71
2023/06/11 05:28:00;;;;;;;;;;;;;;;-140.72;100.00;52240.72;6245682;23;20273;-71
2023/06/11 05:30:26;;;;;;;;;;;;;;;-140.72;100.00;52189.97;6219303;23;19978;-71
2023/06/11 05:32:53;;;;;;;;;;;;;;;-140.72;100.00;52212.31;6246307;23;19968;-71
2023/06/11 05:35:18;;;;;;;;;;;;;;;-140.72;100.00;52224.47;6246082;23;19912;-71
2023/06/11 05:37:43;;;;;;;;;;;;;;;-140.72;100.00;52171.72;6246043;23;19918;-71
2023/06/11 05:40:11;;;;;;;;;;;;;;;-140.72;100.00;52171.72;6218667;23;19978;-71
2023/06/11 05:42:36;;;;;;;;;;;;;;;-140.72;100.00;52212.31;6247153;23;20041;-71
2023/06/11 05:45:01;;;;;;;;;;;;;;;-140.72;100.00;52159.56;6246236;22;20290;-71
2023/06/11 05:47:27;;;;;;;;;;;;;;;-140.72;100.00;52167.66;6245913;23;20247;-71
2023/06/11 05:49:52;;;;;;;;;;;;;;;-140.72;99.85;52175.78;6245952;23;20050;-71
2023/06/11 05:52:17;;;;;;;;;;;;;;;-140.72;87.02;52139.25;6245723;23;19912;-70
2023/06/11 05:54:42;;;;;;;;;;;;;;;-140.72;79.32;52157.53;6245924;23;19947;-71
2023/06/11 05:57:23;;;;;;;;;;;;;;;-140.72;72.49;52159.56;6218608;23;19911;-71
2023/06/11 05:59:55;;;;;;;;;;;;;;;-140.72;69.87;52135.19;6245069;23;19912;-70
2023/06/11 06:02:38;;;;;;;;;;;;;;;-140.72;51.80;52169.69;6245821;23;19911;-72
2023/06/11 06:05:03;;;;;;;;;;;;;;;-140.72;50.74;52131.16;6244764;23;19911;-70
2023/06/11 06:07:33;;;;;;;;;;;;;;;-140.72;60.73;52155.50;6245274;23;20393;-77
2023/06/11 06:09:58;;;;;;;;;;;;;;;-140.72;49.08;52171.72;6219992;23;19918;-76
2023/06/11 06:12:23;;;;;;;;;;;;;;;-140.72;28.51;52125.06;6247031;23;19911;-77
2023/06/11 06:15:17;;;;;;;;;;;;;;;-140.72;19.48;52147.38;6218651;23;19911;-76
2023/06/11 06:17:42;;;;;;;;;;;;;;;-140.72;10.14;52112.88;6218902;23;19915;-76
2023/06/11 06:20:09;;;;;;;;;;;;;;;-140.72;2.39;52125.06;6245187;23;19921;-75
2023/06/11 06:22:34;;;;;;;;;;;;;;;-140.72;0.00;52145.34;6245490;23;20249;-76
2023/06/11 06:24:59;;;;;;;;;;;;;;;-140.72;0.00;52147.38;6218679;23;19912;-75
2023/06/11 06:27:25;;;;;;;;;;;;;;;-140.72;0.00;52129.13;6245160;23;19912;-75
2023/06/11 06:29:50;;;;;;;;;;;;;;;-140.72;0.00;52114.91;6245490;23;20009;-76
2023/06/11 06:32:39;;;;;;;;;;;;;;;-140.72;0.00;52114.91;6245820;23;19915;-76
2023/06/11 06:35:33;;;;;;;;;;;;;;;-140.72;0.00;52118.97;6218811;23;19912;-76
2023/06/11 06:38:01;;;;;;;;;;;;;;;-140.72;0.00;52076.34;6249057;23;20359;-76
2023/06/11 06:40:26;;;;;;;;;;;;;;;-140.72;0.00;52106.78;6245622;23;20488;-76
2023/06/11 06:45:55;;;;;;;;;;;;;;;-140.72;0.00;52096.66;6245767;22;20401;-75
2023/06/11 06:48:20;;;;;;;;;;;;;;;-140.72;0.00;52072.31;6219545;23;19950;-75
2023/06/11 06:50:46;;;;;;;;;;;;;;;-140.72;0.00;52058.09;6218183;23;19923;-76
2023/06/11 06:53:23;;;;;;;;;;;;;;;-140.72;0.00;52123.03;6245413;23;20011;-75
2023/06/11 06:55:48;;;;;;;;;;;;;;;-140.72;0.00;52088.53;6218773;23;19957;-77
2023/06/11 06:58:14;;;;;;;;;;;;;;;-140.72;0.00;52078.38;6246419;23;19911;-76
2023/06/11 07:00:54;;;;;;;;;;;;;;;-140.72;0.00;52090.56;6245126;23;19919;-76
2023/06/11 07:03:19;;;;;;;;;;;;;;;-140.72;0.00;52110.84;6219829;23;19911;-76
2023/06/11 07:05:44;;;;;;;;;;;;;;;-140.72;0.00;52080.41;6245699;23;20219;-76
2023/06/11 07:08:13;;;;;;;;;;;;;;;-140.72;0.00;52058.09;6246982;23;19911;-77
2023/06/11 07:10:42;;;;;;;;;;;;;;;-140.72;0.00;52108.81;6245100;23;19972;-76
2023/06/11 07:13:08;;;;;;;;;;;;;;;-140.72;0.00;52060.13;6217900;23;20319;-76
2023/06/11 07:15:33;;;;;;;;;;;;;;;-140.72;0.00;52045.94;6217933;23;19912;-77
2023/06/11 07:17:58;;;;;;;;;;;;;;;-140.72;0.00;52047.97;6244640;23;19911;-75
2023/06/11 07:20:24;;;;;;;;;;;;;;;-140.72;0.00;52043.91;6245019;23;20153;-76
2023/06/11 07:22:49;;;;;;;;;;;;;;;-140.72;0.00;52049.97;6244624;23;19918;-77
2023/06/11 07:25:15;;;;;;;;;;;;;;;-140.72;0.00;52025.63;6219574;23;19918;-75
2023/06/11 07:27:41;;;;;;;;;;;;;;;-140.72;0.00;52025.63;6218703;23;19911;-76
2023/06/11 07:30:06;;;;;;;;;;;;;;;-140.72;0.00;52043.91;6244844;23;19969;-75
2023/06/11 07:32:39;;;;;;;;;;;;;;;-140.72;0.00;52054.03;6244937;23;19965;-75
2023/06/11 07:35:05;;;;;;;;;;;;;;;-140.72;0.00;52041.88;6218250;23;19911;-76
2023/06/11 07:37:31;;;;;;;;;;;;;;;-140.72;0.00;52029.69;6244870;23;20195;-73
2023/06/11 07:39:56;;;;;;;;;;;;;;;-140.72;0.00;52025.63;6245142;23;19990;-72
2023/06/11 07:42:21;;;;;;;;;;;;;;;-140.72;0.00;52041.88;6244654;23;19974;-73
2023/06/11 07:44:46;;;;;;;;;;;;;;;-140.72;0.00;52021.56;6244858;23;19912;-73
2023/06/11 07:47:12;;;;;;;;;;;;;;;-140.72;0.00;52003.31;6218101;23;19922;-72
2023/06/11 07:49:37;;;;;;;;;;;;;;;-140.72;0.00;52013.47;6244858;23;19966;-73
2023/06/11 07:52:02;;;;;;;;;;;;;;;-140.72;0.00;51956.66;6217441;23;19994;-72
2023/06/11 07:54:31;;;;;;;;;;;;;;;-140.72;0.00;52015.50;6217279;23;19962;-72
2023/06/11 07:56:56;;;;;;;;;;;;;;;-140.72;0.00;52021.56;6244894;23;19987;-73
2023/06/11 07:59:21;;;;;;;;;;;;;;;-140.72;0.00;51995.19;6245087;23;19968;-73
2023/06/11 08:01:47;;;;;;;;;;;;;;;-140.72;0.00;51962.75;6244628;23;19924;-73
2023/06/11 08:04:12;;;;;;;;;;;;;;;-140.72;0.00;51960.72;6246450;23;19922;-73
2023/06/11 08:06:37;;;;;;;;;;;;;;;-140.72;0.00;51985.06;6244497;23;19912;-73
2023/06/11 08:09:03;;;;;;;;;;;;;;;-140.72;0.00;51950.56;6244004;23;20041;-74
2023/06/11 08:11:28;;;;;;;;;;;;;;;-140.72;0.00;51956.66;6244211;23;20339;-75
2023/06/11 08:14:12;;;;;;;;;;;;;;;-140.72;0.00;51914.03;6244300;23;19973;-76
2023/06/11 08:16:38;;;;;;;;;;;;;;;-140.72;0.00;51958.69;6244727;23;19912;-74
2023/06/11 08:19:03;;;;;;;;;;;;;;;-140.72;0.00;51912.03;6245968;23;19973;-73
2023/06/11 08:21:28;;;;;;;;;;;;;;;-140.72;0.00;51940.41;6247128;23;19911;-74
2023/06/11 08:23:54;;;;;;;;;;;;;;;-140.72;0.00;51934.34;6247483;23;19915;-73
2023/06/11 08:26:19;;;;;;;;;;;;;;;-140.72;0.00;51881.59;6220844;23;19912;-74
2023/06/11 08:28:45;;;;;;;;;;;;;;;-140.72;0.00;51920.13;6246593;23;19919;-74
2023/06/11 08:31:10;;;;;;;;;;;;;;;-140.72;0.00;51905.94;6220414;23;19934;-73
2023/06/11 08:33:36;;;;;;;;;;;;;;;-140.72;0.00;51889.69;6221406;23;20038;-74
2023/06/11 08:36:01;;;;;;;;;;;;;;;-140.72;0.00;51877.53;6246702;23;20292;-74
2023/06/11 08:38:29;;;;;;;;;;;;;;;-140.72;0.00;51873.47;6246340;23;19912;-73
2023/06/11 08:40:55;;;;;;;;;;;;;;;-140.72;0.00;51869.41;6246602;23;19976;-72
2023/06/11 08:43:20;;;;;;;;;;;;;;;-140.72;0.00;51818.69;6246162;23;19920;-72
2023/06/11 08:45:45;;;;;;;;;;;;;;;-140.72;0.00;51820.72;6246175;22;20243;-80
2023/06/11 08:48:15;;;;;;;;;;;;;;;-140.72;0.00;51826.81;6219513;23;19923;-75
2023/06/11 08:50:41;;;;;;;;;;;;;;;-140.72;0.00;51847.09;6219295;23;20310;-74
2023/06/11 08:53:07;;;;;;;;;;;;;;;-140.72;0.00;51818.69;6245887;23;19951;-74
2023/06/11 08:55:32;;;;;;;;;;;;;;;-140.72;0.00;51814.63;6218792;23;19923;-73
2023/06/11 08:57:57;;;;;;;;;;;;;;;-140.72;0.00;51798.41;6245995;23;19966;-73
2023/06/11 09:00:31;;;;;;;;;;;;;;;-140.72;0.00;51806.53;6246025;23;19969;-73
2023/06/11 09:02:56;;;;;;;;;;;;;;;-140.72;0.00;51812.59;6246201;23;20300;-73
2023/06/11 09:05:26;;;;;;;;;;;;;;;-140.72;0.00;51790.28;6219164;23;19922;-74
2023/06/11 09:07:52;;;;;;;;;;;;;;;-140.72;0.00;51761.88;6219267;23;20045;-73
2023/06/11 09:10:18;;;;;;;;;;;;;;;-140.72;0.00;51765.94;6246851;23;19912;-76
2023/06/11 09:12:43;;;;;;;;;;;;;;;-140.72;0.00;51761.88;6246831;23;19950;-75
2023/06/11 09:15:09;;;;;;;;;;;;;;;-140.72;0.00;51711.16;6247628;23;19912;-76
2023/06/11 09:17:38;;;;;;;;;;;;;;;-140.72;0.00;51745.66;6246772;23;19918;-77
2023/06/11 09:20:05;;;;;;;;;;;;;;;-140.72;0.00;51780.16;6219690;23;19927;-76
2023/06/11 09:22:30;;;;;;;;;;;;;;;-140.72;0.00;51715.22;6218874;23;19982;-76
2023/06/11 09:24:56;;;;;;;;;;;;;;;-140.72;0.00;51701.03;6220495;23;19912;-76
2023/06/11 09:27:22;;;;;;;;;;;;;;;-140.72;0.00;51676.69;6248504;23;20010;-77
2023/06/11 09:29:47;;;;;;;;;;;;;;;-140.72;0.00;51646.25;6222592;23;19911;-76
2023/06/11 09:32:12;;;;;;;;;;;;;;;-140.72;0.00;51652.34;6248282;23;20307;-75
2023/06/11 09:34:37;;;;;;;;;;;;;;;-140.72;0.00;51646.25;6246215;23;19943;-77
2023/06/11 09:37:03;;;;;;;;;;;;;;;-140.72;0.00;51640.16;6247610;23;19911;-77
2023/06/11 09:39:29;;;;;;;;;;;;;;;-140.72;0.00;51599.59;6219938;23;19946;-76
2023/06/11 09:41:54;;;;;;;;;;;;;;;-140.72;0.00;51636.09;6245894;23;19990;-76
2023/06/11 09:44:20;;;;;;;;;;;;;;;-140.72;0.00;51615.81;6219188;23;19915;-76
2023/06/11 09:46:46;;;;;;;;;;;;;;;-140.72;0.00;51571.19;6245728;22;20322;-76
2023/06/11 09:49:15;;;;;;;;;;;;;;;-140.72;0.00;51569.16;6219018;23;19923;-76
2023/06/11 09:51:41;;;;;;;;;;;;;;;-140.72;0.00;51585.38;6218998;23;19922;-76
2023/06/11 09:54:09;;;;;;;;;;;;;;;-140.72;0.00;51518.44;6219302;23;19911;-76
2023/06/11 09:56:37;;;;;;;;;;;;;;;-140.72;0.00;51500.19;6249326;23;20324;-75
2023/06/11 09:59:05;;;;;;;;;;;;;;;-140.72;0.00;51463.66;6246226;23;19938;-75
2023/06/11 10:01:31;;;;;;;;;;;;;;;-140.72;0.00;51490.03;6246167;23;19912;-76
2023/06/11 10:03:57;;;;;;;;;;;;;;;-140.72;0.00;51469.75;6246084;23;20274;-76
2023/06/11 10:06:25;;;;;;;;;;;;;;;-140.72;0.00;51443.38;6255044;23;19915;-76
2023/06/11 10:08:53;;;;;;;;;;;;;;;-140.72;0.00;51443.38;6230008;23;19915;-78
2023/06/11 10:11:24;;;;;;;;;;;;;;;-140.72;0.00;51443.38;6250225;23;19919;-76
2023/06/11 10:13:58;;;;;;;;;;;;;;;-140.72;0.00;51408.88;6247075;23;20248;-76
2023/06/11 10:16:25;;;;;;;;;;;;;;;-140.72;0.00;51421.06;6219145;23;19912;-76
2023/06/11 10:18:51;;;;;;;;;;;;;;;-140.72;0.00;51481.91;6218582;23;19912;-75
2023/06/11 10:21:17;;;;;;;;;;;;;;;-140.72;0.00;51449.47;6245633;23;20018;-77
2023/06/11 10:23:42;;;;;;;;;;;;;;;-140.72;0.00;51437.28;6246171;23;20335;-76
2023/06/11 10:26:13;;;;;;;;;;;;;;;-140.72;0.00;51477.88;6245197;23;19946;-75
2023/06/11 10:28:48;;;;;;;;;;;;;;;-140.72;0.00;51425.13;6246004;23;19912;-76
2023/06/11 10:31:42;;;;;;;;;;;;;;;-140.72;0.00;51384.53;6245634;23;19982;-78
2023/06/11 10:34:12;;;;;;;;;;;;;;;-140.72;0.00;51400.78;6219070;23;19960;-75
2023/06/11 10:36:40;;;;;;;;;;;;;;;-140.72;0.00;51388.59;6218548;23;20323;-74
2023/06/11 10:39:09;;;;;;;;;;;;;;;-140.72;0.00;51299.34;6220597;23;20227;-81
2023/06/11 10:41:39;;;;;;;;;;;;;;;-140.72;0.00;51388.59;6219686;23;19984;-77
2023/06/11 10:44:04;;;;;;;;;;;;;;;-140.72;0.00;51307.47;6246571;23;19911;-77
2023/06/11 10:46:29;;;;;;;;;;;;;;;-140.72;0.00;51305.44;6245312;22;19912;-75
2023/06/11 10:48:54;;;;;;;;;;;;;;;-140.72;0.00;51323.69;6219710;23;20189;-76
2023/06/11 10:51:20;;;;;;;;;;;;;;;-140.72;0.00;51354.13;6218139;23;19989;-76
2023/06/11 10:53:53;;;;;;;;;;;;;;;-140.72;0.00;51333.84;6218749;23;19912;-76
2023/06/11 10:56:19;;;;;;;;;;;;;;;-140.72;0.00;51258.78;6245287;23;19919;-75
2023/06/11 10:58:48;;;;;;;;;;;;;;;-140.72;0.00;51327.75;6245629;23;19920;-77
2023/06/11 11:01:13;;;;;;;;;;;;;;;-140.72;0.00;51301.38;6219939;23;19912;-76
2023/06/11 11:03:39;;;;;;;;;;;;;;;-140.72;0.00;51293.25;6219367;23;19947;-75
2023/06/11 11:06:10;;;;;;;;;;;;;;;-140.72;0.00;51285.16;6246091;23;19947;-77
2023/06/11 11:08:36;;;;;;;;;;;;;;;-140.72;0.00;51307.47;6218396;23;19912;-76
2023/06/11 11:11:01;;;;;;;;;;;;;;;-140.72;0.00;51341.94;6218204;23;19974;-75
2023/06/11 11:13:30;;;;;;;;;;;;;;;-140.72;0.00;51307.47;6245057;23;19915;-76
2023/06/11 11:15:56;;;;;;;;;;;;;;;-140.72;0.00;51313.53;6244962;23;19931;-76
2023/06/11 11:18:21;;;;;;;;;;;;;;;-140.72;0.00;51285.16;6245398;23;20289;-77
2023/06/11 11:20:56;;;;;;;;;;;;;;;-140.72;0.00;51329.78;6247493;23;19916;-77
2023/06/11 11:23:24;;;;;;;;;;;;;;;-140.72;0.00;51258.78;6245390;23;20117;-75
2023/06/11 11:25:50;;;;;;;;;;;;;;;-140.72;0.00;51248.63;6245516;23;19958;-76
2023/06/11 11:28:16;;;;;;;;;;;;;;;-140.72;0.00;51191.84;6245547;23;20298;-76
2023/06/11 11:30:42;;;;;;;;;;;;;;;-140.72;0.00;51197.91;6220052;23;19973;-76
2023/06/11 11:33:07;;;;;;;;;;;;;;;-140.72;0.00;51169.53;6258873;23;20391;-76
2023/06/11 11:35:32;;;;;;;;;;;;;;;-140.72;0.00;51193.88;6257748;23;20342;-77
2023/06/11 11:37:58;;;;;;;;;;;;;;;-140.72;0.00;51220.22;6253810;23;19912;-76
2023/06/11 11:40:23;;;;;;;;;;;;;;;-140.72;0.00;51206.03;6248521;23;20283;-74
2023/06/11 11:42:49;;;;;;;;;;;;;;;-140.72;0.00;51250.66;6245277;23;19912;-74
2023/06/11 11:45:14;;;;;;;;;;;;;;;-140.72;0.00;51240.53;6244380;22;19946;-74
2023/06/11 11:47:52;;;;;;;;;;;;;;;-140.72;0.00;51228.34;6244726;23;20302;-75
2023/06/11 11:50:19;;;;;;;;;;;;;;;-140.72;0.00;51193.88;6247695;23;19915;-74
2023/06/11 11:52:45;;;;;;;;;;;;;;;-140.72;0.00;51268.91;6224145;23;19918;-74
2023/06/11 11:55:11;;;;;;;;;;;;;;;-140.72;0.00;51283.13;6220217;23;19919;-75
2023/06/11 11:57:40;;;;;;;;;;;;;;;-140.72;0.00;51193.88;6245935;23;19955;-75
2023/06/11 12:00:06;;;;;;;;;;;;;;;-140.72;0.00;51179.66;6246011;23;20331;-74
2023/06/11 12:02:31;;;;;;;;;;;;;;;-140.72;0.00;51145.19;6243536;23;20011;-75
2023/06/11 12:05:00;;;;;;;;;;;;;;;-140.72;0.00;51177.63;6217684;23;19990;-74
2023/06/11 12:07:25;;;;;;;;;;;;;;;-140.72;0.00;51189.81;6218663;23;19912;-74
2023/06/11 12:09:50;;;;;;;;;;;;;;;-140.72;0.00;51242.53;6218167;23;19918;-75
2023/06/11 12:12:16;;;;;;;;;;;;;;;-140.72;0.00;51295.28;6245172;23;19912;-74
2023/06/11 12:14:41;;;;;;;;;;;;;;;-140.72;0.00;51234.44;6217714;23;19911;-74
2023/06/11 12:17:09;;;;;;;;;;;;;;;-140.72;0.00;51252.69;6218215;23;19912;-74
2023/06/11 12:19:35;;;;;;;;;;;;;;;-140.72;0.00;51262.84;6246510;23;19915;-75
2023/06/11 12:22:00;;;;;;;;;;;;;;;-140.72;0.00;51238.50;6246320;23;20209;-76
2023/06/11 12:24:25;;;;;;;;;;;;;;;-140.72;0.00;51210.09;6245376;23;19915;-75
2023/06/11 12:27:10;;;;;;;;;;;;;;;-140.72;0.00;51177.63;6244918;23;19911;-76
2023/06/11 12:29:35;;;;;;;;;;;;;;;-140.72;0.00;51133.00;6218518;23;19911;-76
2023/06/11 12:32:01;;;;;;;;;;;;;;;-140.72;0.00;51163.44;6221094;23;19939;-77
2023/06/11 12:34:26;;;;;;;;;;;;;;;-140.72;0.00;51126.94;6218921;23;19911;-75